Time;durP1;ratioP1;P1;durP2;ratioP2;P2;SDS_P1;SDS_P2;PMS_P1;PMS_P2;Temp;Humidity;BMP_temperature;BMP_pressure;BME280_temperature;BME280_humidity;BME280_pressure;Samples;Min_cycle;Max_cycle;Signal;HPM_P1;HPM_P2
2023/03/30 00:01:29;;;;;;;21.25;13.70;;;11.50;99.90;;;;;;5075393;28;20398;-58
2023/03/30 00:03:55;;;;;;;17.95;13.52;;;11.70;99.90;;;;;;5056588;28;20452;-59
2023/03/30 00:06:21;;;;;;;21.08;13.98;;;11.70;99.90;;;;;;5057402;28;20124;-58
2023/03/30 00:08:52;;;;;;;21.40;13.00;;;11.70;99.90;;;;;;5075293;28;20036;-59
2023/03/30 00:11:18;;;;;;;16.65;12.35;;;11.70;99.90;;;;;;5075038;28;20037;-59
2023/03/30 00:13:44;;;;;;;18.10;11.07;;;11.80;99.90;;;;;;5075240;28;20474;-59
2023/03/30 00:16:12;;;;;;;16.27;10.68;;;11.60;99.90;;;;;;5075021;28;20501;-58
2023/03/30 00:18:38;;;;;;;13.13;10.32;;;11.60;99.90;;;;;;5075369;28;20040;-59
2023/03/30 00:21:06;;;;;;;16.83;11.15;;;11.80;99.90;;;;;;5075267;28;20098;-59
2023/03/30 00:23:32;;;;;;;15.52;9.73;;;11.80;99.90;;;;;;5075060;28;20116;-58
2023/03/30 00:25:58;;;;;;;20.13;10.85;;;11.90;99.90;;;;;;5075057;28;20047;-60
2023/03/30 00:28:25;;;;;;;13.20;9.35;;;11.80;99.90;;;;;;5075116;28;20062;-59
2023/03/30 00:30:52;;;;;;;11.50;8.30;;;11.90;99.90;;;;;;5074599;28;20471;-58
2023/03/30 00:33:18;;;;;;;13.27;9.25;;;11.90;99.90;;;;;;5074516;28;20367;-59
2023/03/30 00:35:57;;;;;;;15.23;9.35;;;12.00;99.90;;;;;;5074701;28;20037;-58
2023/03/30 00:38:24;;;;;;;14.40;8.40;;;12.00;99.90;;;;;;5074937;28;20036;-59
2023/03/30 00:40:56;;;;;;;15.63;8.75;;;12.00;99.90;;;;;;5074860;28;20477;-58
2023/03/30 00:43:23;;;;;;;12.32;8.88;;;11.90;99.90;;;;;;5074493;28;20036;-58
2023/03/30 00:45:49;;;;;;;14.75;7.53;;;12.00;99.90;;;;;;5074342;28;20036;-59
2023/03/30 00:48:27;;;;;;;10.10;8.70;;;12.10;99.90;;;;;;5056658;28;20045;-58
2023/03/30 00:51:00;;;;;;;15.30;8.10;;;12.00;99.90;;;;;;5074219;28;20052;-58
2023/03/30 00:53:47;;;;;;;10.82;7.95;;;12.00;99.90;;;;;;5074537;28;20047;-60
2023/03/30 00:56:16;;;;;;;12.50;7.65;;;12.00;99.90;;;;;;5074364;28;20628;-59
2023/03/30 00:58:43;;;;;;;12.60;7.97;;;12.00;99.90;;;;;;5074714;28;20040;-59
2023/03/30 01:01:13;;;;;;;9.27;7.47;;;12.10;99.90;;;;;;5074655;28;20044;-58
2023/03/30 01:03:44;;;;;;;9.48;7.65;;;12.10;99.90;;;;;;5056468;28;20129;-59
2023/03/30 01:06:11;;;;;;;14.10;7.35;;;12.10;99.90;;;;;;5074001;28;20562;-59
2023/03/30 01:08:38;;;;;;;17.50;7.88;;;12.20;99.90;;;;;;5073413;28;20060;-59
2023/03/30 01:11:07;;;;;;;8.60;7.25;;;12.10;99.90;;;;;;5074042;28;20053;-59
2023/03/30 01:13:36;;;;;;;16.45;7.68;;;12.00;99.90;;;;;;5074221;28;20099;-59
2023/03/30 01:16:22;;;;;;;8.65;7.00;;;12.10;99.90;;;;;;5074125;28;20041;-59
2023/03/30 01:18:54;;;;;;;11.57;8.63;;;12.10;99.90;;;;;;5073977;28;20091;-58
2023/03/30 01:21:35;;;;;;;11.88;7.35;;;12.20;99.90;;;;;;5055938;28;20033;-58
2023/03/30 01:24:03;;;;;;;10.40;6.95;;;12.00;99.90;;;;;;5074113;28;20120;-59
2023/03/30 01:26:48;;;;;;;9.75;6.88;;;12.00;99.90;;;;;;5074096;28;20048;-59
2023/03/30 01:29:38;;;;;;;11.80;7.60;;;12.10;99.90;;;;;;5073889;28;20398;-59
2023/03/30 01:32:10;;;;;;;11.05;7.30;;;12.10;99.90;;;;;;5074049;28;20108;-58
2023/03/30 01:35:20;;;;;;;10.77;7.25;;;12.10;99.90;;;;;;5073547;28;20043;-59
2023/03/30 01:37:56;;;;;;;10.15;7.00;;;11.90;99.90;;;;;;5073550;28;20036;-59
2023/03/30 01:40:44;;;;;;;10.68;6.78;;;12.00;99.90;;;;;;5073809;28;20040;-59
2023/03/30 01:43:42;;;;;;;8.90;6.55;;;12.10;99.90;;;;;;5055928;28;20071;-58
2023/03/30 01:46:32;;;;;;;18.38;7.47;;;12.00;99.90;;;;;;4972633;28;20055;-59
2023/03/30 01:49:09;;;;;;;;;;;11.90;99.90;;;;;;4973004;28;20038;-59
2023/03/30 01:51:41;;;;;;;13.55;6.88;;;12.00;99.90;;;;;;4974593;28;20000;-59
2023/03/30 01:54:12;;;;;;;10.02;6.13;;;12.00;99.90;;;;;;4991875;28;20046;-59
2023/03/30 01:56:43;;;;;;;12.77;6.68;;;12.00;99.90;;;;;;4959973;28;20051;-58
2023/03/30 01:59:23;;;;;;;9.55;6.20;;;11.90;99.90;;;;;;4991893;28;20046;-59
2023/03/30 02:01:52;;;;;;;9.02;6.50;;;12.00;99.90;;;;;;4991706;28;20054;-59
2023/03/30 02:04:22;;;;;;;12.65;6.53;;;12.00;99.90;;;;;;4975427;28;20615;-59
2023/03/30 02:06:55;;;;;;;11.73;6.25;;;12.00;99.90;;;;;;4994065;28;20088;-59
2023/03/30 02:09:23;;;;;;;12.77;6.13;;;12.00;99.90;;;;;;5011059;28;20464;-58
2023/03/30 02:11:52;;;;;;;9.60;5.77;;;12.00;99.90;;;;;;4994728;28;20120;-59
2023/03/30 02:14:21;;;;;;;10.25;5.90;;;11.90;99.90;;;;;;4994685;28;20049;-58
2023/03/30 02:16:50;;;;;;;9.68;5.25;;;12.00;99.90;;;;;;5011134;28;20046;-58
2023/03/30 02:19:17;;;;;;;12.57;5.93;;;12.10;99.90;;;;;;5010127;28;20045;-58
2023/03/30 02:21:43;;;;;;;10.90;5.15;;;12.00;99.90;;;;;;5025018;28;20444;-58
2023/03/30 02:24:19;;;;;;;10.40;4.93;;;12.00;99.90;;;;;;5104006;28;20054;-59
2023/03/30 02:26:47;;;;;;;12.10;5.47;;;12.10;99.90;;;;;;5113434;28;20088;-59
2023/03/30 02:29:14;;;;;;;7.88;4.80;;;12.10;99.90;;;;;;5113414;28;20035;-59
2023/03/30 02:31:42;;;;;;;12.30;4.25;;;12.20;99.90;;;;;;5113244;28;20040;-59
2023/03/30 02:34:28;;;;;;;7.78;4.35;;;12.20;99.90;;;;;;5113386;28;20039;-58
2023/03/30 02:37:13;;;;;;;9.82;4.63;;;12.20;99.90;;;;;;5113386;28;20035;-59
2023/03/30 02:40:11;;;;;;;9.63;5.10;;;12.20;99.90;;;;;;5113302;28;20050;-59
2023/03/30 02:42:58;;;;;;;8.05;4.70;;;12.20;99.90;;;;;;5112903;28;20035;-58
2023/03/30 02:45:42;;;;;;;11.73;4.90;;;12.20;99.90;;;;;;5113022;28;20043;-59
2023/03/30 02:48:30;;;;;;;10.73;5.13;;;12.20;99.90;;;;;;5113017;28;20046;-59
2023/03/30 02:51:17;;;;;;;8.90;4.25;;;12.20;99.90;;;;;;5111769;28;20051;-59
2023/03/30 02:53:50;;;;;;;7.13;4.25;;;12.20;99.90;;;;;;5113140;28;20454;-59
2023/03/30 02:56:18;;;;;;;8.90;4.25;;;12.30;99.90;;;;;;5112985;28;20039;-59
2023/03/30 02:58:55;;;;;;;6.55;3.90;;;12.30;99.90;;;;;;5113047;28;20405;-59
2023/03/30 03:01:43;;;;;;;8.48;4.57;;;12.30;99.90;;;;;;5112772;28;20052;-59
2023/03/30 03:04:11;;;;;;;10.40;3.95;;;12.20;99.90;;;;;;5113026;28;20521;-59
2023/03/30 03:06:37;;;;;;;7.60;3.90;;;12.30;99.90;;;;;;5112842;28;20074;-59
2023/03/30 03:09:04;;;;;;;7.57;3.50;;;12.30;99.90;;;;;;5112712;28;20042;-59
2023/03/30 03:11:30;;;;;;;8.57;3.42;;;12.40;99.90;;;;;;5112585;28;20039;-58
2023/03/30 03:13:55;;;;;;;8.70;3.78;;;12.30;99.90;;;;;;5113026;28;20042;-59
2023/03/30 03:16:21;;;;;;;9.27;4.10;;;12.30;99.90;;;;;;5111586;28;20461;-59
2023/03/30 03:18:48;;;;;;;10.15;4.10;;;12.40;99.90;;;;;;5111384;28;20075;-59
2023/03/30 03:21:14;;;;;;;7.93;3.85;;;12.40;99.90;;;;;;5112748;28;20160;-59
2023/03/30 03:23:41;;;;;;;6.93;2.85;;;12.40;99.90;;;;;;5112464;28;20040;-59
2023/03/30 03:26:08;;;;;;;8.23;3.50;;;12.40;99.90;;;;;;5112309;28;20039;-58
2023/03/30 03:28:34;;;;;;;13.93;3.47;;;12.40;99.90;;;;;;5112395;28;20413;-59
2023/03/30 03:31:01;;;;;;;7.75;3.53;;;12.30;99.90;;;;;;5113795;28;20039;-58
2023/03/30 03:33:27;;;;;;;8.25;3.67;;;12.40;99.90;;;;;;5116654;28;20409;-58
2023/03/30 03:35:53;;;;;;;6.85;3.42;;;12.40;99.90;;;;;;5116530;28;20104;-58
2023/03/30 03:38:23;;;;;;;9.43;4.03;;;12.20;99.90;;;;;;5115219;28;20046;-58
2023/03/30 03:40:50;;;;;;;9.98;4.07;;;12.20;99.90;;;;;;5116378;28;20047;-58
2023/03/30 03:43:17;;;;;;;13.10;4.35;;;12.20;99.90;;;;;;5116666;28;20386;-59
2023/03/30 03:45:45;;;;;;;10.50;4.03;;;12.10;99.90;;;;;;5116576;28;20044;-59
2023/03/30 03:48:11;;;;;;;7.43;3.55;;;12.20;99.90;;;;;;5116449;28;20088;-58
2023/03/30 03:50:37;;;;;;;12.60;3.60;;;12.30;99.90;;;;;;5116223;28;20040;-59
2023/03/30 03:53:03;;;;;;;11.00;3.72;;;12.30;99.90;;;;;;5116295;28;20047;-59
2023/03/30 03:55:29;;;;;;;9.15;3.88;;;12.20;99.90;;;;;;5116201;28;20039;-59
2023/03/30 03:57:55;;;;;;;11.77;4.07;;;12.30;99.90;;;;;;5116605;28;20043;-59
2023/03/30 04:00:22;;;;;;;8.40;3.63;;;12.30;99.90;;;;;;5116592;28;20504;-59
2023/03/30 04:02:48;;;;;;;13.40;4.00;;;12.30;99.90;;;;;;5116455;28;20166;-59
2023/03/30 04:05:13;;;;;;;9.55;3.28;;;12.30;99.90;;;;;;5116495;28;20517;-59
2023/03/30 04:07:40;;;;;;;7.57;2.95;;;12.20;99.90;;;;;;5115983;28;20082;-59
2023/03/30 04:10:06;;;;;;;8.32;3.20;;;12.20;99.90;;;;;;5116167;27;20043;-59
2023/03/30 04:12:32;;;;;;;9.27;3.67;;;12.20;99.90;;;;;;5116051;28;20511;-59
2023/03/30 04:14:58;;;;;;;8.32;3.00;;;12.20;99.90;;;;;;5114646;28;20409;-59
2023/03/30 04:17:24;;;;;;;13.32;2.88;;;12.20;99.90;;;;;;5115685;28;20039;-59
2023/03/30 04:19:52;;;;;;;10.02;3.20;;;12.20;99.90;;;;;;5116012;27;20115;-59
2023/03/30 04:22:25;;;;;;;6.67;2.73;;;12.20;99.90;;;;;;5115584;28;20035;-59
2023/03/30 04:24:51;;;;;;;8.60;2.78;;;12.30;99.90;;;;;;5116105;28;20134;-59
2023/03/30 04:27:17;;;;;;;9.63;2.63;;;12.30;99.90;;;;;;5114524;28;20039;-59
2023/03/30 04:29:43;;;;;;;11.82;2.85;;;12.20;99.90;;;;;;5115687;28;20043;-58
2023/03/30 04:32:12;;;;;;;8.23;2.20;;;12.20;99.90;;;;;;5115627;28;20061;-59
2023/03/30 04:34:45;;;;;;;9.45;3.20;;;12.20;99.90;;;;;;5115582;28;20035;-59
2023/03/30 04:37:16;;;;;;;11.30;2.85;;;12.20;99.90;;;;;;5114194;28;20039;-59
2023/03/30 04:39:43;;;;;;;10.95;2.55;;;12.20;99.90;;;;;;5115788;28;20039;-58
2023/03/30 04:42:13;;;;;;;6.75;2.40;;;12.20;99.90;;;;;;5111814;28;20031;-58
2023/03/30 04:44:39;;;;;;;8.23;2.00;;;12.30;99.90;;;;;;5115469;28;20043;-58
2023/03/30 04:47:05;;;;;;;9.00;2.42;;;12.20;99.90;;;;;;5110292;28;20085;-58
2023/03/30 04:49:31;;;;;;;11.55;2.17;;;12.40;99.90;;;;;;5114926;27;20067;-59
2023/03/30 04:51:57;;;;;;;9.98;3.00;;;12.40;99.90;;;;;;5115044;28;20450;-59
2023/03/30 04:54:23;;;;;;;7.53;2.53;;;12.50;99.90;;;;;;5115143;28;20075;-59
2023/03/30 04:56:48;;;;;;;12.00;2.58;;;12.40;99.90;;;;;;5113936;28;20035;-59
2023/03/30 04:59:14;;;;;;;12.02;2.30;;;12.40;99.90;;;;;;5115155;28;20039;-59
2023/03/30 05:01:40;;;;;;;10.52;2.70;;;12.40;99.90;;;;;;5114941;28;20040;-59
2023/03/30 05:04:06;;;;;;;8.10;2.65;;;12.50;99.90;;;;;;5114830;28;20036;-59
2023/03/30 05:06:32;;;;;;;9.75;2.30;;;12.50;99.90;;;;;;5100946;28;20036;-59
2023/03/30 05:08:58;;;;;;;10.25;3.08;;;12.50;99.90;;;;;;5094850;28;20492;-59
2023/03/30 05:11:23;;;;;;;12.30;2.58;;;12.50;99.90;;;;;;5094571;28;20406;-59
2023/03/30 05:13:55;;;;;;;5.72;2.60;;;12.50;99.90;;;;;;5094628;28;20082;-59
2023/03/30 05:16:21;;;;;;;12.85;2.75;;;12.60;99.90;;;;;;5094491;28;20040;-59
2023/03/30 05:18:47;;;;;;;10.30;2.22;;;12.50;99.90;;;;;;5094264;28;20035;-58
2023/03/30 05:21:12;;;;;;;10.63;2.50;;;12.50;99.90;;;;;;5093402;28;20043;-59
2023/03/30 05:23:41;;;;;;;8.27;2.63;;;12.60;99.90;;;;;;5094348;28;20083;-59
2023/03/30 05:26:07;;;;;;;10.52;3.30;;;12.50;99.90;;;;;;5094013;28;20127;-58
2023/03/30 05:28:33;;;;;;;9.57;3.15;;;12.60;99.90;;;;;;5094597;28;20150;-59
2023/03/30 05:30:59;;;;;;;10.45;3.03;;;12.60;99.90;;;;;;5093807;28;20516;-59
2023/03/30 05:33:24;;;;;;;12.25;2.65;;;12.50;99.90;;;;;;5093937;28;20035;-59
2023/03/30 05:35:50;;;;;;;8.20;2.47;;;12.60;99.90;;;;;;5093975;28;20036;-59
2023/03/30 05:38:16;;;;;;;9.38;3.00;;;12.50;99.90;;;;;;5094221;28;20032;-59
2023/03/30 05:40:43;;;;;;;11.25;3.40;;;12.60;99.90;;;;;;5093871;28;20062;-59
2023/03/30 05:43:09;;;;;;;11.43;3.35;;;12.60;99.90;;;;;;5092697;28;20051;-61
2023/03/30 05:45:35;;;;;;;12.15;3.45;;;12.60;99.90;;;;;;5093924;28;20071;-59
2023/03/30 05:48:01;;;;;;;9.93;3.10;;;12.60;99.90;;;;;;5093596;28;20071;-59
2023/03/30 05:50:27;;;;;;;10.95;3.05;;;12.50;99.90;;;;;;5093839;28;20535;-58
2023/03/30 05:52:52;;;;;;;12.43;3.45;;;12.50;99.90;;;;;;5094044;28;20052;-59
2023/03/30 05:55:18;;;;;;;15.38;3.20;;;12.60;99.90;;;;;;5093603;28;20048;-59
2023/03/30 05:57:44;;;;;;;10.38;3.78;;;12.50;99.90;;;;;;5092551;28;20050;-58
2023/03/30 06:00:12;;;;;;;8.45;3.08;;;12.50;99.90;;;;;;5075779;28;20062;-59
2023/03/30 06:02:39;;;;;;;12.30;3.37;;;12.60;99.90;;;;;;5093465;28;20075;-58
2023/03/30 06:05:05;;;;;;;11.68;3.50;;;12.60;99.90;;;;;;5093533;28;20308;-59
2023/03/30 06:07:31;;;;;;;12.82;3.53;;;12.60;99.90;;;;;;5093314;28;20541;-58
2023/03/30 06:09:58;;;;;;;9.80;3.53;;;12.50;99.90;;;;;;5093080;28;20122;-58
2023/03/30 06:12:24;;;;;;;6.68;3.05;;;12.60;99.90;;;;;;5102833;28;20032;-59
2023/03/30 06:14:50;;;;;;;10.30;3.08;;;12.60;99.90;;;;;;5093327;28;20044;-59
2023/03/30 06:17:16;;;;;;;9.10;2.70;;;12.70;99.90;;;;;;5093423;28;20391;-59
2023/03/30 06:19:41;;;;;;;9.18;3.30;;;12.70;99.90;;;;;;5093402;28;20035;-59
2023/03/30 06:22:08;;;;;;;7.72;3.10;;;12.60;99.90;;;;;;5091887;28;20047;-59
2023/03/30 06:24:34;;;;;;;12.88;3.95;;;12.70;99.90;;;;;;5091946;28;20055;-59
2023/03/30 06:27:01;;;;;;;14.38;3.85;;;12.70;99.90;;;;;;5092754;28;20051;-59
2023/03/30 06:29:27;;;;;;;9.90;3.65;;;12.80;99.90;;;;;;5092933;28;20043;-59
2023/03/30 06:31:53;;;;;;;7.35;3.63;;;12.70;99.90;;;;;;5091576;28;20047;-59
2023/03/30 06:34:19;;;;;;;11.30;3.67;;;12.70;99.90;;;;;;5092844;28;20478;-59
2023/03/30 06:36:47;;;;;;;15.15;3.63;;;12.70;99.90;;;;;;5092527;28;20474;-59
2023/03/30 06:39:13;;;;;;;8.32;3.55;;;12.70;99.90;;;;;;5092736;28;20420;-60
2023/03/30 06:41:39;;;;;;;13.27;3.70;;;12.70;99.90;;;;;;5092532;28;20047;-59
2023/03/30 06:44:05;;;;;;;10.55;3.10;;;12.70;99.90;;;;;;5092459;28;20047;-59
2023/03/30 06:46:32;;;;;;;7.70;3.35;;;12.60;99.90;;;;;;5092858;28;20036;-59
2023/03/30 06:48:58;;;;;;;11.65;3.35;;;12.70;99.90;;;;;;5092556;28;20042;-59
2023/03/30 06:51:23;;;;;;;9.55;3.42;;;12.70;99.90;;;;;;5092188;28;20493;-59
2023/03/30 06:53:49;;;;;;;13.63;2.80;;;12.80;99.90;;;;;;5092294;28;20036;-59
2023/03/30 06:56:15;;;;;;;12.13;4.10;;;12.80;99.90;;;;;;5092253;28;20040;-59
2023/03/30 06:58:40;;;;;;;11.55;3.22;;;12.80;99.90;;;;;;5092260;28;20036;-59
2023/03/30 07:01:14;;;;;;;8.27;3.13;;;12.70;99.90;;;;;;5092281;28;20043;-59
2023/03/30 07:03:40;;;;;;;15.10;3.63;;;12.80;99.90;;;;;;5092666;28;20071;-59
2023/03/30 07:06:07;;;;;;;10.18;3.20;;;12.80;99.90;;;;;;5097524;28;20031;-59
2023/03/30 07:08:34;;;;;;;11.77;3.10;;;12.80;99.90;;;;;;5112349;28;20046;-60
2023/03/30 07:11:01;;;;;;;13.48;3.28;;;12.80;99.90;;;;;;5112597;28;20409;-59
2023/03/30 07:13:27;;;;;;;14.27;3.30;;;12.80;99.90;;;;;;5112834;28;20039;-61
2023/03/30 07:15:52;;;;;;;11.55;2.88;;;12.80;99.90;;;;;;5112588;28;20043;-59
2023/03/30 07:18:18;;;;;;;15.25;3.25;;;12.80;99.90;;;;;;5112633;28;20039;-59
2023/03/30 07:20:45;;;;;;;17.10;3.75;;;12.80;99.90;;;;;;5112308;28;20039;-59
2023/03/30 07:23:11;;;;;;;14.55;3.05;;;12.80;99.90;;;;;;5112483;28;20345;-59
2023/03/30 07:25:37;;;;;;;16.33;3.72;;;12.90;99.90;;;;;;5112280;28;20043;-59
2023/03/30 07:28:05;;;;;;;13.00;3.22;;;12.90;99.90;;;;;;5110561;28;20052;-60
2023/03/30 07:30:32;;;;;;;13.23;3.15;;;12.90;99.90;;;;;;5099981;28;20032;-59
2023/03/30 07:32:58;;;;;;;16.75;3.33;;;12.80;99.90;;;;;;5081915;28;20041;-59
2023/03/30 07:35:23;;;;;;;14.35;3.10;;;12.80;99.90;;;;;;5086379;28;20111;-59
2023/03/30 07:37:49;;;;;;;15.85;3.25;;;12.70;99.90;;;;;;5110245;28;20035;-57
2023/03/30 07:40:16;;;;;;;12.75;4.03;;;12.70;99.90;;;;;;5112188;28;20110;-57
2023/03/30 07:42:42;;;;;;;20.55;3.50;;;12.70;99.90;;;;;;5111097;28;20112;-59
2023/03/30 07:45:08;;;;;;;19.85;3.95;;;12.60;99.90;;;;;;5112492;28;20040;-59
2023/03/30 07:47:34;;;;;;;15.35;3.28;;;12.60;99.90;;;;;;5112367;28;20084;-60
2023/03/30 07:50:00;;;;;;;17.23;3.72;;;12.60;99.90;;;;;;5112176;28;20517;-57
2023/03/30 07:52:26;;;;;;;13.07;3.65;;;12.60;99.90;;;;;;5112503;28;20050;-57
2023/03/30 07:54:53;;;;;;;11.75;3.63;;;12.50;99.90;;;;;;5112316;28;20385;-57
2023/03/30 07:57:19;;;;;;;19.58;2.90;;;12.50;99.90;;;;;;5112524;28;20477;-57
2023/03/30 07:59:45;;;;;;;24.88;4.10;;;12.40;99.90;;;;;;5093698;28;20054;-57
2023/03/30 08:02:13;;;;;;;11.77;2.90;;;12.40;99.90;;;;;;5112426;28;20039;-57
2023/03/30 08:04:40;;;;;;;16.92;3.85;;;12.30;99.90;;;;;;5112501;28;20074;-58
2023/03/30 08:07:06;;;;;;;16.45;3.25;;;12.30;99.90;;;;;;5111217;28;20036;-59
2023/03/30 08:09:32;;;;;;;15.50;3.85;;;12.30;99.90;;;;;;5112118;28;20816;-58
2023/03/30 08:11:59;;;;;;;27.50;4.95;;;12.10;99.90;;;;;;5112366;28;20047;-58
2023/03/30 08:14:26;;;;;;;21.15;4.07;;;12.20;99.90;;;;;;5111971;28;20119;-59
2023/03/30 08:16:52;;;;;;;20.67;4.75;;;12.20;99.90;;;;;;5106441;28;20043;-59
2023/03/30 08:19:19;;;;;;;19.40;4.53;;;12.20;99.90;;;;;;5115888;28;20485;-59
2023/03/30 08:21:45;;;;;;;15.20;4.15;;;12.10;99.90;;;;;;5115719;28;20477;-59
2023/03/30 08:24:10;;;;;;;17.27;3.75;;;12.20;99.90;;;;;;5097459;28;20043;-58
2023/03/30 08:26:37;;;;;;;21.65;5.05;;;12.10;99.90;;;;;;5115694;28;20042;-59
2023/03/30 08:29:02;;;;;;;23.08;5.05;;;12.20;99.90;;;;;;5115653;28;20035;-59
2023/03/30 08:31:31;;;;;;;28.58;4.68;;;12.00;99.90;;;;;;5115887;28;20066;-58
2023/03/30 08:33:57;;;;;;;24.30;4.97;;;12.00;99.90;;;;;;5115847;28;20039;-58
2023/03/30 08:36:23;;;;;;;19.67;4.80;;;11.90;99.90;;;;;;5115339;28;20145;-59
2023/03/30 08:38:49;;;;;;;20.00;5.53;;;11.80;99.90;;;;;;5102362;28;20079;-58
2023/03/30 08:41:53;;;;;;;23.80;5.00;;;11.80;99.90;;;;;;5093819;28;20035;-58
2023/03/30 08:44:35;;;;;;;23.63;6.03;;;11.80;99.90;;;;;;5032525;28;20188;-59
2023/03/30 08:47:04;;;;;;;22.20;4.43;;;11.80;99.90;;;;;;5016051;28;20606;-59
2023/03/30 08:49:34;;;;;;;28.50;5.18;;;11.80;99.90;;;;;;5024446;28;20037;-58
2023/03/30 08:52:03;;;;;;;20.95;4.38;;;11.90;99.90;;;;;;5032645;28;20060;-59
2023/03/30 08:54:31;;;;;;;24.20;5.13;;;11.70;99.90;;;;;;5032640;28;20700;-59
2023/03/30 08:57:10;;;;;;;27.52;5.20;;;11.80;99.90;;;;;;5032533;28;20503;-58
2023/03/30 08:59:55;;;;;;;28.83;5.88;;;11.80;99.90;;;;;;5013691;28;20053;-59
2023/03/30 09:02:41;;;;;;;32.65;6.00;;;12.00;99.90;;;;;;5019424;28;20081;-59
2023/03/30 09:05:27;;;;;;;29.55;5.90;;;12.10;99.90;;;;;;5012428;28;20049;-58
2023/03/30 09:08:15;;;;;;;23.10;5.28;;;12.20;99.90;;;;;;5044656;28;20147;-58
2023/03/30 09:10:46;;;;;;;27.90;4.82;;;12.30;99.90;;;;;;5052120;28;20072;-58
2023/03/30 09:13:16;;;;;;;27.35;5.28;;;12.40;99.90;;;;;;5051911;28;20037;-59
2023/03/30 09:15:52;;;;;;;22.30;5.13;;;12.60;99.90;;;;;;5052138;28;20144;-59
2023/03/30 09:18:28;;;;;;;23.65;6.75;;;12.70;99.90;;;;;;5052050;28;20037;-58
2023/03/30 09:20:57;;;;;;;21.00;5.40;;;12.70;99.90;;;;;;5068244;28;20053;-58
2023/03/30 09:23:23;;;;;;;20.20;4.70;;;12.80;99.90;;;;;;5074283;28;20032;-58
2023/03/30 09:26:10;;;;;;;26.77;5.57;;;12.70;99.90;;;;;;5081348;28;20044;-58
2023/03/30 09:29:04;;;;;;;23.58;4.13;;;12.80;99.90;;;;;;5093582;28;20028;-58
2023/03/30 09:31:52;;;;;;;20.48;4.35;;;13.00;99.90;;;;;;5091898;28;20513;-59
2023/03/30 09:34:28;;;;;;;20.85;4.43;;;13.10;99.90;;;;;;5094031;28;20035;-58
2023/03/30 09:37:09;;;;;;;22.40;5.32;;;13.10;99.90;;;;;;5100776;28;20115;-58
2023/03/30 09:39:35;;;;;;;23.42;5.63;;;13.30;99.90;;;;;;5114710;28;20031;-58
2023/03/30 09:42:11;;;;;;;23.48;4.38;;;13.40;99.90;;;;;;5114452;28;20042;-59
2023/03/30 09:44:42;;;;;;;19.25;4.82;;;13.40;99.90;;;;;;5114330;28;20043;-59
2023/03/30 09:47:21;;;;;;;23.00;4.82;;;13.40;99.90;;;;;;5114159;28;20035;-59
2023/03/30 09:49:47;;;;;;;22.55;3.53;;;13.30;99.90;;;;;;5114304;28;20039;-58
2023/03/30 09:52:21;;;;;;;17.65;3.03;;;13.20;99.90;;;;;;5114241;28;20111;-58
2023/03/30 09:54:46;;;;;;;20.80;4.32;;;13.20;99.90;;;;;;5106365;28;20457;-59
2023/03/30 09:57:24;;;;;;;18.85;4.50;;;13.10;99.90;;;;;;5113772;28;20032;-58
2023/03/30 09:59:54;;;;;;;16.50;3.78;;;13.00;99.90;;;;;;5114007;28;20043;-59
2023/03/30 10:02:22;;;;;;;15.63;4.22;;;13.00;99.90;;;;;;5108015;28;20575;-58
2023/03/30 10:04:57;;;;;;;27.03;4.57;;;13.00;99.90;;;;;;5081413;28;20078;-59
2023/03/30 10:07:35;;;;;;;17.60;4.07;;;12.90;99.90;;;;;;5073273;28;20036;-59
2023/03/30 10:10:12;;;;;;;16.60;3.28;;;12.90;99.90;;;;;;5073039;28;20043;-59
2023/03/30 10:12:38;;;;;;;14.45;3.22;;;12.80;99.90;;;;;;5073433;28;20113;-59
2023/03/30 10:15:05;;;;;;;18.05;4.13;;;12.90;99.90;;;;;;5073004;28;20037;-61
2023/03/30 10:17:31;;;;;;;19.63;2.97;;;12.90;99.90;;;;;;5073180;28;20040;-61
2023/03/30 10:20:28;;;;;;;19.40;3.72;;;13.00;99.90;;;;;;5073232;28;20036;-61
2023/03/30 10:23:23;;;;;;;14.77;3.38;;;13.00;99.90;;;;;;5011627;28;20115;-61
2023/03/30 10:25:50;;;;;;;17.13;3.30;;;13.00;99.90;;;;;;5017062;28;20053;-61
2023/03/30 10:28:25;;;;;;;15.98;3.50;;;13.00;99.90;;;;;;5030931;28;20059;-60
2023/03/30 10:30:55;;;;;;;20.95;3.65;;;13.00;99.90;;;;;;5031047;28;20102;-61
2023/03/30 10:33:22;;;;;;;19.08;4.30;;;12.90;99.90;;;;;;5031063;28;20132;-60
2023/03/30 10:35:52;;;;;;;21.92;4.07;;;12.90;99.90;;;;;;5030788;28;20045;-60
2023/03/30 10:38:19;;;;;;;17.98;3.65;;;12.90;99.90;;;;;;5031085;28;20038;-60
2023/03/30 10:40:46;;;;;;;19.10;3.40;;;12.90;99.90;;;;;;5012820;28;20045;-60
2023/03/30 10:43:19;;;;;;;16.75;3.67;;;12.90;99.90;;;;;;5030953;28;20041;-61
2023/03/30 10:45:52;;;;;;;16.27;3.90;;;12.90;99.90;;;;;;5030293;28;20599;-61
2023/03/30 10:48:36;;;;;;;18.95;3.17;;;12.90;99.90;;;;;;5020973;28;20045;-61
2023/03/30 10:51:09;;;;;;;19.50;3.63;;;13.10;99.90;;;;;;5010716;28;20129;-61
2023/03/30 10:53:57;;;;;;;21.25;4.63;;;13.00;99.90;;;;;;5025161;28;20049;-61
2023/03/30 10:56:42;;;;;;;19.85;3.38;;;13.00;99.90;;;;;;5030612;28;20041;-61
2023/03/30 10:59:16;;;;;;;19.75;3.83;;;13.00;99.90;;;;;;5044462;28;20048;-61
2023/03/30 11:02:20;;;;;;;21.63;4.07;;;13.00;99.90;;;;;;5092759;28;20043;-60
2023/03/30 11:05:06;;;;;;;21.27;5.05;;;13.00;99.90;;;;;;5010608;28;20050;-60
2023/03/30 11:07:59;;;;;;;21.83;4.28;;;13.00;99.90;;;;;;5010771;28;20073;-61
2023/03/30 11:10:30;;;;;;;18.52;4.43;;;13.10;99.90;;;;;;5010708;28;20049;-60
2023/03/30 11:13:10;;;;;;;22.23;5.68;;;13.10;99.90;;;;;;5010706;28;20139;-61
2023/03/30 11:15:46;;;;;;;20.40;4.72;;;13.20;99.90;;;;;;5010301;28;20046;-59
2023/03/30 11:18:48;;;;;;;22.27;4.65;;;13.20;99.90;;;;;;5010493;28;20204;-59
2023/03/30 11:21:33;;;;;;;17.00;3.95;;;13.30;99.90;;;;;;5009948;28;20088;-59
2023/03/30 11:24:08;;;;;;;24.00;4.93;;;13.40;99.90;;;;;;4991906;28;20202;-59
2023/03/30 11:26:42;;;;;;;26.52;5.07;;;13.50;99.90;;;;;;4997046;28;20416;-59
2023/03/30 11:29:32;;;;;;;21.60;4.50;;;13.50;99.90;;;;;;5010264;28;20116;-60
2023/03/30 11:32:22;;;;;;;22.27;3.85;;;13.60;99.90;;;;;;5010189;28;20042;-59
2023/03/30 11:35:09;;;;;;;17.73;3.25;;;13.70;99.90;;;;;;5010091;28;20077;-59
2023/03/30 11:37:58;;;;;;;20.90;4.47;;;13.60;99.90;;;;;;4990516;28;20169;-60
2023/03/30 11:40:47;;;;;;;21.00;3.47;;;13.70;99.90;;;;;;5009558;28;20075;-59
2023/03/30 11:43:16;;;;;;;20.48;3.85;;;13.80;99.90;;;;;;5072096;28;20079;-60
2023/03/30 11:46:02;;;;;;;20.27;3.83;;;14.00;99.90;;;;;;5071684;28;20036;-59
2023/03/30 11:48:50;;;;;;;26.30;4.38;;;14.10;99.90;;;;;;5071321;28;20040;-59
2023/03/30 11:51:45;;;;;;;18.23;4.32;;;13.90;99.90;;;;;;5071474;28;20060;-59
2023/03/30 11:54:30;;;;;;;23.73;3.92;;;13.80;99.90;;;;;;5075389;28;20050;-59
2023/03/30 11:57:13;;;;;;;18.42;4.15;;;13.90;99.90;;;;;;5075490;28;20043;-59
2023/03/30 12:00:27;;;;;;;23.20;4.88;;;13.90;99.90;;;;;;5073950;28;20044;-59
2023/03/30 12:03:29;;;;;;;24.95;4.97;;;14.00;99.90;;;;;;5013287;28;20120;-59
2023/03/30 12:06:05;;;;;;;18.60;3.95;;;14.00;99.90;;;;;;5013289;28;20049;-60
2023/03/30 12:09:07;;;;;;;20.80;4.85;;;13.90;99.90;;;;;;5013316;28;20045;-59
2023/03/30 12:11:56;;;;;;;24.52;4.97;;;14.00;99.90;;;;;;5013325;28;20245;-59
2023/03/30 12:14:45;;;;;;;22.08;4.35;;;14.00;99.90;;;;;;5013225;28;20128;-59
2023/03/30 12:17:29;;;;;;;21.15;4.25;;;14.10;99.90;;;;;;5013256;28;20137;-59
2023/03/30 12:20:20;;;;;;;23.08;4.53;;;14.20;99.90;;;;;;5013118;28;20042;-59
2023/03/30 12:23:16;;;;;;;23.00;4.35;;;14.30;99.90;;;;;;5013206;28;20057;-60
2023/03/30 12:26:25;;;;;;;25.58;4.25;;;14.20;99.90;;;;;;4973829;28;20493;-60
2023/03/30 12:29:03;;;;;;;21.38;4.53;;;14.30;99.90;;;;;;4935566;29;20135;-61
2023/03/30 12:31:57;;;;;;;26.52;4.78;;;14.20;99.90;;;;;;4935778;29;20055;-60
2023/03/30 12:34:27;;;;;;;19.20;4.18;;;14.20;99.90;;;;;;4982030;28;20042;-60
2023/03/30 12:37:08;;;;;;;20.45;4.20;;;14.10;99.90;;;;;;4993455;28;20053;-60
2023/03/30 12:39:43;;;;;;;17.15;4.35;;;14.10;99.90;;;;;;4993293;28;20053;-60
2023/03/30 12:42:25;;;;;;;18.05;4.03;;;14.10;99.90;;;;;;4993293;28;20202;-60
2023/03/30 12:45:11;;;;;;;15.45;4.28;;;14.10;99.90;;;;;;4993202;28;20136;-60
2023/03/30 12:48:08;;;;;;;22.40;4.00;;;14.20;99.90;;;;;;4992968;28;20049;-59
2023/03/30 12:50:59;;;;;;;21.83;4.15;;;14.30;99.90;;;;;;4992868;28;20497;-59
2023/03/30 12:53:24;;;;;;;;;;;14.50;99.90;;;;;;4977349;28;20089;-59
2023/03/30 12:56:19;;;;;;;26.25;4.10;;;14.50;99.90;;;;;;4992995;28;20005;-58
2023/03/30 12:58:54;;;;;;;25.58;4.60;;;14.40;99.90;;;;;;4992776;28;20147;-59
2023/03/30 13:01:48;;;;;;;21.58;4.47;;;14.50;99.90;;;;;;4993026;28;20039;-58
2023/03/30 13:04:21;;;;;;;23.73;4.53;;;14.40;99.90;;;;;;5068409;28;20040;-58
2023/03/30 13:06:59;;;;;;;22.25;4.28;;;14.20;99.90;;;;;;5094421;28;20055;-60